createdAt,value
2024-04-19T00:06:53.120Z,100244.63
2024-04-19T00:17:00.759Z,100229.66
2024-04-19T00:27:10.678Z,100221.09
2024-04-19T00:37:28.132Z,100204.16
2024-04-19T00:47:33.228Z,100185.72
2024-04-19T00:57:41.234Z,100188.94
2024-04-19T01:07:46.178Z,100169.78
2024-04-19T01:17:53.803Z,100167.91
2024-04-19T01:28:01.182Z,100151.47
2024-04-19T01:38:09.860Z,100140.25
2024-04-19T01:48:17.300Z,100119.88
2024-04-19T01:58:22.117Z,100097.19
2024-04-19T02:08:30.493Z,100085.06
2024-04-19T02:18:35.282Z,100071.00
2024-04-19T02:28:59.374Z,100068.06
2024-04-19T02:39:04.136Z,100055.31
2024-04-19T02:49:11.464Z,100020.31
2024-04-19T02:59:21.900Z,99999.28
2024-04-19T03:09:31.955Z,99977.56
2024-04-19T03:19:36.650Z,99978.69
2024-04-19T03:29:44.130Z,99987.31
2024-04-19T03:39:49.041Z,99976.81
2024-04-19T03:49:56.850Z,99987.63
2024-04-19T04:00:02.685Z,99958.66
2024-04-19T04:10:22.003Z,99934.78
2024-04-19T04:20:26.807Z,99930.53
2024-04-19T04:30:34.381Z,99930.13
2024-04-19T04:40:39.195Z,99922.81
2024-04-19T04:50:46.616Z,99913.41
2024-04-19T05:00:52.519Z,99923.38
2024-04-19T05:11:02.027Z,99907.94
2024-04-19T05:31:48.149Z,99884.19
2024-04-19T05:41:53.047Z,99898.19
2024-04-19T05:52:00.433Z,99855.59
2024-04-19T06:02:06.536Z,99833.13
2024-04-19T06:12:43.702Z,99820.28
2024-04-19T06:22:48.473Z,99808.19
2024-04-19T06:32:56.100Z,99799.03
2024-04-19T06:43:27.886Z,99781.66
2024-04-19T06:53:35.309Z,99750.75
2024-04-19T07:03:40.266Z,99726.91
2024-04-19T07:13:48.947Z,99722.38
2024-04-19T07:23:53.801Z,99694.19
2024-04-19T07:34:04.800Z,99681.81
2024-04-19T07:44:34.416Z,99648.25
2024-04-19T07:54:43.623Z,99640.88
2024-04-19T08:04:48.907Z,99620.13
2024-04-19T08:14:56.513Z,99609.75
2024-04-19T08:25:01.310Z,99588.53
2024-04-19T08:35:08.925Z,99577.00
2024-04-19T08:45:14.864Z,99572.50
2024-04-19T08:55:22.742Z,99559.59
2024-04-19T09:05:27.580Z,99544.81
2024-04-19T09:15:37.972Z,99531.94
2024-04-19T09:25:43.256Z,99522.19
2024-04-19T09:35:55.502Z,99502.84
2024-04-19T09:46:00.461Z,99503.28
2024-04-19T09:56:19.136Z,99483.34
2024-04-19T10:06:27.081Z,99466.63
2024-04-19T10:16:34.619Z,99460.22
2024-04-19T10:26:39.531Z,99439.50
2024-04-19T10:36:47.099Z,99425.44
2024-04-19T10:46:52.784Z,99396.22
2024-04-19T10:57:02.760Z,99374.72
2024-04-19T11:07:08.087Z,99368.38
2024-04-19T11:17:15.497Z,99345.47
2024-04-19T11:27:20.288Z,99332.47
2024-04-19T11:37:27.649Z,99312.16
2024-04-19T11:47:33.292Z,99300.81
2024-04-19T11:57:41.572Z,99289.28
2024-04-19T12:07:46.576Z,99291.91
2024-04-19T12:17:55.811Z,99276.47
2024-04-19T12:28:03.900Z,99254.88
2024-04-19T12:38:11.360Z,99237.03
2024-04-19T12:48:21.085Z,99218.63
2024-04-19T12:58:28.833Z,99202.53
2024-04-19T13:08:36.807Z,99184.72
2024-04-19T13:18:46.529Z,99172.63
2024-04-19T13:28:53.418Z,99172.72
2024-04-19T13:39:00.805Z,99143.53
2024-04-19T13:49:05.504Z,99169.72
2024-04-19T13:59:15.538Z,99170.38
2024-04-19T14:09:46.438Z,99163.84
2024-04-19T14:19:55.297Z,99163.94
2024-04-19T14:30:00.057Z,99181.19
2024-04-19T14:40:33.454Z,99168.53
2024-04-19T14:50:38.536Z,99169.06
2024-04-19T15:00:47.216Z,99167.44
2024-04-19T15:10:54.548Z,99191.22
2024-04-19T15:21:03.328Z,99161.25
2024-04-19T15:31:09.526Z,99130.47
2024-04-19T15:41:19.446Z,99170.59
2024-04-19T15:51:24.904Z,99188.84
2024-04-19T16:01:40.060Z,99209.28
2024-04-19T16:11:45.133Z,99200.41
2024-04-19T16:21:52.607Z,99192.97
2024-04-19T16:31:58.538Z,99203.13
2024-04-19T16:42:06.232Z,99219.91
2024-04-19T16:52:11.728Z,99225.38
2024-04-19T17:02:19.119Z,99254.72
2024-04-19T17:12:24.870Z,99238.03
2024-04-19T17:22:32.309Z,99229.88
2024-04-19T17:32:38.016Z,99246.00
2024-04-19T17:42:50.862Z,99250.72
2024-04-19T17:52:55.851Z,99264.63
2024-04-19T18:03:05.497Z,99291.75
2024-04-19T18:13:10.230Z,99310.06
2024-04-19T18:23:17.542Z,99340.66
2024-04-19T18:33:22.689Z,99358.06
2024-04-19T18:43:32.110Z,99370.66
2024-04-19T18:53:36.758Z,99369.25
2024-04-19T19:03:45.416Z,99383.97
2024-04-19T19:13:50.519Z,99392.63
2024-04-19T19:23:57.796Z,99413.75
2024-04-19T19:34:03.174Z,99418.34
2024-04-19T19:44:11.343Z,99427.97
2024-04-19T19:54:16.056Z,99450.00
2024-04-19T20:04:39.543Z,99440.00
2024-04-19T20:14:44.290Z,99447.44
2024-04-19T20:24:51.731Z,99457.91
2024-04-19T20:34:56.459Z,99459.78
2024-04-19T20:45:03.770Z,99476.03
2024-04-19T20:55:08.730Z,99485.19
2024-04-19T21:05:16.050Z,99483.31
2024-04-19T21:15:20.756Z,99495.66
2024-04-19T21:25:28.102Z,99505.44
2024-04-19T21:35:32.884Z,99524.19
2024-04-19T21:45:44.112Z,99513.69
2024-04-19T21:55:49.290Z,99528.06
2024-04-19T22:05:56.827Z,99531.38
2024-04-19T22:16:28.373Z,99539.13
2024-04-19T22:26:35.783Z,99559.53
2024-04-19T22:36:41.228Z,99584.53
2024-04-19T22:46:52.154Z,99581.16
2024-04-19T22:56:56.851Z,99603.34
2024-04-19T23:07:26.237Z,99609.63
2024-04-19T23:17:31.691Z,99621.13
2024-04-19T23:27:39.414Z,99626.66
2024-04-19T23:37:44.147Z,99634.81
2024-04-19T23:47:51.579Z,99635.28
2024-04-19T23:57:58.110Z,99637.00
